sensor_id;sensor_type;location;lat;lon;timestamp;pressure;altitude;pressure_sealevel;temperature;humidity
75290;BME280;63883;48.996;20.804;2023-11-19T13:57:11;96213.78;;;7.25;69.33
75290;BME280;63883;48.996;20.804;2023-11-19T13:59:40;96207.22;;;5.66;79.25
75290;BME280;63883;48.996;20.804;2023-11-19T14:02:06;96191.03;;;4.41;86.73
75290;BME280;63883;48.996;20.804;2023-11-19T14:04:33;96211.88;;;3.56;93.67
75290;BME280;63883;48.996;20.804;2023-11-19T14:06:59;96206.22;;;3.13;98.79
75290;BME280;63883;48.996;20.804;2023-11-19T14:09:24;96195.47;;;2.67;100.00
75290;BME280;63883;48.996;20.804;2023-11-19T14:11:51;96198.94;;;2.23;100.00
75290;BME280;63883;48.996;20.804;2023-11-19T14:14:17;96183.88;;;2.14;100.00
75290;BME280;63883;48.996;20.804;2023-11-19T14:16:43;96190.56;;;2.03;100.00
75290;BME280;63883;48.996;20.804;2023-11-19T14:19:08;96179.66;;;1.95;100.00
75290;BME280;63883;48.996;20.804;2023-11-19T14:21:34;96183.03;;;1.99;100.00
75290;BME280;63883;48.996;20.804;2023-11-19T14:24:00;96185.53;;;2.06;100.00
75290;BME280;63883;48.996;20.804;2023-11-19T14:26:25;96189.75;;;2.06;100.00
75290;BME280;63883;48.996;20.804;2023-11-19T14:28:51;96183.88;;;1.93;100.00
75290;BME280;63883;48.996;20.804;2023-11-19T14:31:16;96178.84;;;1.98;100.00
75290;BME280;63883;48.996;20.804;2023-11-19T14:33:42;96198.97;;;1.93;100.00
75290;BME280;63883;48.996;20.804;2023-11-19T14:36:08;96195.63;;;1.79;100.00
75290;BME280;63883;48.996;20.804;2023-11-19T14:38:34;96189.72;;;1.81;100.00
75290;BME280;63883;48.996;20.804;2023-11-19T14:41:00;96203.16;;;1.79;100.00
75290;BME280;63883;48.996;20.804;2023-11-19T14:43:26;96211.53;;;1.72;100.00
75290;BME280;63883;48.996;20.804;2023-11-19T14:45:52;96198.13;;;1.70;100.00
75290;BME280;63883;48.996;20.804;2023-11-19T14:48:19;96193.94;;;1.78;100.00
75290;BME280;63883;48.996;20.804;2023-11-19T14:50:44;96195.59;;;1.77;100.00
75290;BME280;63883;48.996;20.804;2023-11-19T14:53:11;96207.34;;;1.83;100.00
75290;BME280;63883;48.996;20.804;2023-11-19T14:55:36;96193.91;;;1.63;100.00
75290;BME280;63883;48.996;20.804;2023-11-19T14:58:02;96206.50;;;1.78;100.00
75290;BME280;63883;48.996;20.804;2023-11-19T15:00:28;96205.66;;;1.70;100.00
75290;BME280;63883;48.996;20.804;2023-11-19T15:02:54;96213.19;;;1.74;100.00
75290;BME280;63883;48.996;20.804;2023-11-19T15:05:21;96219.06;;;1.78;100.00
75290;BME280;63883;48.996;20.804;2023-11-19T15:07:48;96204.84;;;1.80;100.00
75290;BME280;63883;48.996;20.804;2023-11-19T15:10:13;96195.63;;;1.79;100.00
75290;BME280;63883;48.996;20.804;2023-11-19T15:12:39;96191.44;;;1.79;100.00
75290;BME280;63883;48.996;20.804;2023-11-19T15:15:08;96194.72;;;1.45;100.00
75290;BME280;63883;48.996;20.804;2023-11-19T15:17:40;96193.03;;;1.33;100.00
75290;BME280;63883;48.996;20.804;2023-11-19T15:20:06;96179.63;;;1.22;100.00
75290;BME280;63883;48.996;20.804;2023-11-19T15:22:32;96182.09;;;1.16;100.00
75290;BME280;63883;48.996;20.804;2023-11-19T15:24:58;96185.44;;;1.16;100.00
75290;BME280;63883;48.996;20.804;2023-11-19T15:27:24;96174.59;;;1.24;100.00
75290;BME280;63883;48.996;20.804;2023-11-19T15:29:49;96177.06;;;1.16;100.00
75290;BME280;63883;48.996;20.804;2023-11-19T15:32:15;96186.28;;;1.06;100.00
75290;BME280;63883;48.996;20.804;2023-11-19T15:34:41;96184.56;;;0.98;100.00
75290;BME280;63883;48.996;20.804;2023-11-19T15:37:08;96161.13;;;0.97;100.00
75290;BME280;63883;48.996;20.804;2023-11-19T15:39:33;96156.13;;;1.09;100.00
75290;BME280;63883;48.996;20.804;2023-11-19T15:42:02;96170.34;;;1.04;100.00
75290;BME280;63883;48.996;20.804;2023-11-19T15:44:28;96164.47;;;0.96;100.00
75290;BME280;63883;48.996;20.804;2023-11-19T15:46:54;96156.97;;;1.04;100.00
75290;BME280;63883;48.996;20.804;2023-11-19T15:49:20;96145.25;;;1.06;100.00
75290;BME280;63883;48.996;20.804;2023-11-19T15:51:46;96150.28;;;1.00;100.00
75290;BME280;63883;48.996;20.804;2023-11-19T15:54:12;96159.44;;;0.95;100.00
75290;BME280;63883;48.996;20.804;2023-11-19T15:56:38;96155.28;;;0.97;100.00
75290;BME280;63883;48.996;20.804;2023-11-19T15:59:04;96159.47;;;1.02;100.00
75290;BME280;63883;48.996;20.804;2023-11-19T16:01:30;96152.75;;;1.01;100.00
75290;BME280;63883;48.996;20.804;2023-11-19T16:03:56;96152.78;;;1.03;100.00
75290;BME280;63883;48.996;20.804;2023-11-19T16:06:22;96154.44;;;0.99;100.00
75290;BME280;63883;48.996;20.804;2023-11-19T16:08:49;96153.59;;;0.97;100.00
75290;BME280;63883;48.996;20.804;2023-11-19T16:11:15;96157.78;;;0.98;100.00
75290;BME280;63883;48.996;20.804;2023-11-19T16:13:43;96136.06;;;1.12;100.00
75290;BME280;63883;48.996;20.804;2023-11-19T16:16:09;96146.91;;;1.04;100.00
75290;BME280;63883;48.996;20.804;2023-11-19T16:18:35;96127.69;;;1.13;100.00
75290;BME280;63883;48.996;20.804;2023-11-19T16:21:00;96132.72;;;1.20;100.00
75290;BME280;63883;48.996;20.804;2023-11-19T16:23:27;96136.94;;;1.22;100.00
75290;BME280;63883;48.996;20.804;2023-11-19T16:25:53;96137.75;;;1.26;100.00
75290;BME280;63883;48.996;20.804;2023-11-19T16:28:19;96144.47;;;1.30;100.00
75290;BME280;63883;48.996;20.804;2023-11-19T16:30:45;96141.94;;;1.25;100.00
75290;BME280;63883;48.996;20.804;2023-11-19T16:33:11;96148.63;;;1.14;100.00
75290;BME280;63883;48.996;20.804;2023-11-19T16:35:38;96146.13;;;1.08;100.00
75290;BME280;63883;48.996;20.804;2023-11-19T16:38:04;96151.97;;;1.16;100.00
75290;BME280;63883;48.996;20.804;2023-11-19T16:40:32;96154.50;;;1.25;100.00
75290;BME280;63883;48.996;20.804;2023-11-19T16:42:58;96153.66;;;1.26;100.00
75290;BME280;63883;48.996;20.804;2023-11-19T16:45:25;96159.56;;;1.30;100.00
75290;BME280;63883;48.996;20.804;2023-11-19T16:47:50;96157.03;;;1.28;100.00
75290;BME280;63883;48.996;20.804;2023-11-19T16:50:17;96157.88;;;1.35;100.00
75290;BME280;63883;48.996;20.804;2023-11-19T16:52:43;96156.19;;;1.38;100.00
75290;BME280;63883;48.996;20.804;2023-11-19T16:55:09;96161.22;;;1.40;100.00
75290;BME280;63883;48.996;20.804;2023-11-19T16:57:39;96152.00;;;1.37;100.00
75290;BME280;63883;48.996;20.804;2023-11-19T17:00:06;96151.19;;;1.43;100.00
75290;BME280;63883;48.996;20.804;2023-11-19T17:02:32;96134.41;;;1.45;100.00
75290;BME280;63883;48.996;20.804;2023-11-19T17:04:58;96141.13;;;1.41;100.00
75290;BME280;63883;48.996;20.804;2023-11-19T17:07:24;96141.94;;;1.31;100.00
75290;BME280;63883;48.996;20.804;2023-11-19T17:09:51;96142.78;;;1.32;100.00
75290;BME280;63883;48.996;20.804;2023-11-19T17:12:17;96135.25;;;1.21;100.00
75290;BME280;63883;48.996;20.804;2023-11-19T17:14:44;96127.72;;;1.15;100.00
75290;BME280;63883;48.996;20.804;2023-11-19T17:17:10;96132.72;;;1.23;100.00
75290;BME280;63883;48.996;20.804;2023-11-19T17:19:37;96133.56;;;1.18;100.00
75290;BME280;63883;48.996;20.804;2023-11-19T17:22:02;96145.28;;;1.20;100.00
75290;BME280;63883;48.996;20.804;2023-11-19T17:24:29;96138.59;;;1.20;100.00
75290;BME280;63883;48.996;20.804;2023-11-19T17:26:54;96131.03;;;1.15;100.00
75290;BME280;63883;48.996;20.804;2023-11-19T17:29:21;96119.31;;;1.17;100.00
75290;BME280;63883;48.996;20.804;2023-11-19T17:31:47;96122.69;;;1.20;100.00
75290;BME280;63883;48.996;20.804;2023-11-19T17:34:14;96111.78;;;1.13;100.00
75290;BME280;63883;48.996;20.804;2023-11-19T17:36:39;96108.44;;;1.05;100.00
75290;BME280;63883;48.996;20.804;2023-11-19T17:39:06;96116.78;;;0.99;100.00
75290;BME280;63883;48.996;20.804;2023-11-19T17:41:32;96115.06;;;0.88;100.00
75290;BME280;63883;48.996;20.804;2023-11-19T17:43:58;96111.72;;;0.76;100.00
75290;BME280;63883;48.996;20.804;2023-11-19T17:46:24;96110.88;;;0.71;100.00
75290;BME280;63883;48.996;20.804;2023-11-19T17:48:51;96125.03;;;0.62;100.00
75290;BME280;63883;48.996;20.804;2023-11-19T17:51:17;96100.75;;;0.49;100.00
75290;BME280;63883;48.996;20.804;2023-11-19T17:53:45;96095.69;;;0.41;100.00
75290;BME280;63883;48.996;20.804;2023-11-19T17:56:11;96099.88;;;0.36;100.00
75290;BME280;63883;48.996;20.804;2023-11-19T17:58:37;96102.34;;;0.28;100.00
75290;BME280;63883;48.996;20.804;2023-11-19T18:01:03;96104.00;;;0.28;100.00
75290;BME280;63883;48.996;20.804;2023-11-19T18:03:30;96098.09;;;0.23;100.00
75290;BME280;63883;48.996;20.804;2023-11-19T18:05:55;96086.41;;;0.14;100.00
75290;BME280;63883;48.996;20.804;2023-11-19T18:08:21;96093.06;;;0.17;100.00
75290;BME280;63883;48.996;20.804;2023-11-19T18:10:48;96092.22;;;0.16;100.00
75290;BME280;63883;48.996;20.804;2023-11-19T18:13:14;96103.03;;;0.05;100.00
75290;BME280;63883;48.996;20.804;2023-11-19T18:15:39;96111.38;;;-0.03;100.00
75290;BME280;63883;48.996;20.804;2023-11-19T18:18:07;96112.16;;;-0.07;100.00
75290;BME280;63883;48.996;20.804;2023-11-19T18:20:35;96113.84;;;-0.06;100.00
75290;BME280;63883;48.996;20.804;2023-11-19T18:23:01;96121.38;;;-0.03;100.00
75290;BME280;63883;48.996;20.804;2023-11-19T18:25:27;96124.69;;;-0.07;100.00
75290;BME280;63883;48.996;20.804;2023-11-19T18:27:53;96112.16;;;-0.05;100.00
75290;BME280;63883;48.996;20.804;2023-11-19T18:30:19;96110.56;;;0.00;100.00
75290;BME280;63883;48.996;20.804;2023-11-19T18:32:45;96111.38;;;0.04;100.00
75290;BME280;63883;48.996;20.804;2023-11-19T18:35:12;96114.72;;;-0.01;100.00
75290;BME280;63883;48.996;20.804;2023-11-19T18:37:40;96128.03;;;-0.08;100.00
75290;BME280;63883;48.996;20.804;2023-11-19T18:40:07;96129.69;;;-0.10;100.00
75290;BME280;63883;48.996;20.804;2023-11-19T18:42:39;96124.66;;;-0.16;100.00
75290;BME280;63883;48.996;20.804;2023-11-19T18:45:05;96123.75;;;-0.21;100.00
75290;BME280;63883;48.996;20.804;2023-11-19T18:47:33;96114.53;;;-0.28;100.00
75290;BME280;63883;48.996;20.804;2023-11-19T18:49:59;96114.53;;;-0.26;100.00
75290;BME280;63883;48.996;20.804;2023-11-19T18:52:28;96127.00;;;-0.37;100.00
75290;BME280;63883;48.996;20.804;2023-11-19T18:54:54;96106.88;;;-0.46;100.00
75290;BME280;63883;48.996;20.804;2023-11-19T18:57:21;96111.03;;;-0.48;100.00
75290;BME280;63883;48.996;20.804;2023-11-19T18:59:46;96113.53;;;-0.51;100.00
75290;BME280;63883;48.996;20.804;2023-11-19T19:02:13;96116.88;;;-0.51;100.00
75290;BME280;63883;48.996;20.804;2023-11-19T19:04:40;96114.31;;;-0.57;100.00
75290;BME280;63883;48.996;20.804;2023-11-19T19:07:07;96100.13;;;-0.58;100.00
75290;BME280;63883;48.996;20.804;2023-11-19T19:09:34;96116.03;;;-0.48;100.00
75290;BME280;63883;48.996;20.804;2023-11-19T19:12:03;96112.69;;;-0.52;100.00
75290;BME280;63883;48.996;20.804;2023-11-19T19:14:29;96100.09;;;-0.61;100.00
75290;BME280;63883;48.996;20.804;2023-11-19T19:16:55;96109.31;;;-0.58;100.00
75290;BME280;63883;48.996;20.804;2023-11-19T19:19:22;96114.34;;;-0.52;100.00
75290;BME280;63883;48.996;20.804;2023-11-19T19:21:49;96108.44;;;-0.62;100.00
75290;BME280;63883;48.996;20.804;2023-11-19T19:24:15;96115.03;;;-0.73;100.00
75290;BME280;63883;48.996;20.804;2023-11-19T19:26:41;96114.06;;;-0.84;100.00
75290;BME280;63883;48.996;20.804;2023-11-19T19:29:07;96114.13;;;-0.80;100.00
75290;BME280;63883;48.996;20.804;2023-11-19T19:31:33;96115.81;;;-0.80;100.00
75290;BME280;63883;48.996;20.804;2023-11-19T19:33:59;96120.78;;;-0.79;100.00
75290;BME280;63883;48.996;20.804;2023-11-19T19:36:27;96120.88;;;-0.72;100.00
75290;BME280;63883;48.996;20.804;2023-11-19T19:38:58;96124.19;;;-0.73;100.00
75290;BME280;63883;48.996;20.804;2023-11-19T19:41:32;96105.78;;;-0.80;100.00
75290;BME280;63883;48.996;20.804;2023-11-19T19:43:57;96101.59;;;-0.83;100.00
75290;BME280;63883;48.996;20.804;2023-11-19T19:46:23;96105.00;;;-0.71;100.00
75290;BME280;63883;48.996;20.804;2023-11-19T19:48:49;96107.50;;;-0.73;100.00
75290;BME280;63883;48.996;20.804;2023-11-19T19:51:18;96101.53;;;-0.89;100.00
75290;BME280;63883;48.996;20.804;2023-11-19T19:53:45;96093.94;;;-0.98;100.00
75290;BME280;63883;48.996;20.804;2023-11-19T19:56:12;96097.19;;;-1.05;100.00
75290;BME280;63883;48.996;20.804;2023-11-19T19:58:37;96106.38;;;-1.05;100.00
75290;BME280;63883;48.996;20.804;2023-11-19T20:01:05;96100.50;;;-1.07;100.00
75290;BME280;63883;48.996;20.804;2023-11-19T20:03:34;96093.00;;;-1.06;100.00
75290;BME280;63883;48.996;20.804;2023-11-19T20:06:04;96106.41;;;-1.02;100.00
75290;BME280;63883;48.996;20.804;2023-11-19T20:08:33;96114.66;;;-1.08;100.00
75290;BME280;63883;48.996;20.804;2023-11-19T20:10:59;96103.88;;;-1.04;100.00
75290;BME280;63883;48.996;20.804;2023-11-19T20:13:26;96106.34;;;-1.10;100.00
75290;BME280;63883;48.996;20.804;2023-11-19T20:15:53;96108.75;;;-1.19;100.00
75290;BME280;63883;48.996;20.804;2023-11-19T20:18:20;96123.72;;;-1.24;100.00
75290;BME280;63883;48.996;20.804;2023-11-19T20:20:46;96117.09;;;-1.17;100.00
75290;BME280;63883;48.996;20.804;2023-11-19T20:23:13;96109.53;;;-1.22;100.00
75290;BME280;63883;48.996;20.804;2023-11-19T20:25:39;96111.13;;;-1.30;100.00
75290;BME280;63883;48.996;20.804;2023-11-19T20:28:05;96111.88;;;-1.35;100.00
75290;BME280;63883;48.996;20.804;2023-11-19T20:30:31;96106.81;;;-1.43;100.00
75290;BME280;63883;48.996;20.804;2023-11-19T20:32:56;96097.63;;;-1.45;100.00
75290;BME280;63883;48.996;20.804;2023-11-19T20:35:22;96099.19;;;-1.53;100.00
75290;BME280;63883;48.996;20.804;2023-11-19T20:37:48;96098.28;;;-1.60;100.00
75290;BME280;63883;48.996;20.804;2023-11-19T20:40:13;96104.13;;;-1.58;100.00
75290;BME280;63883;48.996;20.804;2023-11-19T20:42:40;96108.25;;;-1.63;100.00
75290;BME280;63883;48.996;20.804;2023-11-19T20:45:06;96099.84;;;-1.70;100.00
75290;BME280;63883;48.996;20.804;2023-11-19T20:47:36;96116.47;;;-1.72;100.00
75290;BME280;63883;48.996;20.804;2023-11-19T20:50:04;96113.16;;;-1.71;100.00
75290;BME280;63883;48.996;20.804;2023-11-19T20:52:36;96104.03;;;-1.66;100.00
75290;BME280;63883;48.996;20.804;2023-11-19T20:55:04;96088.97;;;-1.72;100.00
75290;BME280;63883;48.996;20.804;2023-11-19T20:57:30;96097.25;;;-1.76;100.00
75290;BME280;63883;48.996;20.804;2023-11-19T20:59:57;96087.22;;;-1.79;100.00
75290;BME280;63883;48.996;20.804;2023-11-19T21:02:22;96086.41;;;-1.78;100.00
75290;BME280;63883;48.996;20.804;2023-11-19T21:04:49;96103.13;;;-1.74;100.00
75290;BME280;63883;48.996;20.804;2023-11-19T21:07:15;96102.31;;;-1.71;100.00
75290;BME280;63883;48.996;20.804;2023-11-19T21:09:41;96101.41;;;-1.78;100.00
75290;BME280;63883;48.996;20.804;2023-11-19T21:14:50;96126.63;;;-1.58;100.00
75290;BME280;63883;48.996;20.804;2023-11-19T21:17:16;96116.69;;;-1.53;100.00
75290;BME280;63883;48.996;20.804;2023-11-19T21:19:41;96123.38;;;-1.52;100.00
75290;BME280;63883;48.996;20.804;2023-11-19T21:22:11;96117.53;;;-1.53;100.00
75290;BME280;63883;48.996;20.804;2023-11-19T21:24:37;96117.59;;;-1.47;100.00
75290;BME280;63883;48.996;20.804;2023-11-19T21:27:03;96119.38;;;-1.37;100.00
75290;BME280;63883;48.996;20.804;2023-11-19T21:29:31;96126.91;;;-1.35;100.00
75290;BME280;63883;48.996;20.804;2023-11-19T21:31:58;96126.13;;;-1.28;100.00
75290;BME280;63883;48.996;20.804;2023-11-19T21:34:24;96132.88;;;-1.24;100.00
75290;BME280;63883;48.996;20.804;2023-11-19T21:36:52;96123.78;;;-1.16;100.00
75290;BME280;63883;48.996;20.804;2023-11-19T21:39:17;96119.66;;;-1.12;100.00
75290;BME280;63883;48.996;20.804;2023-11-19T21:41:45;96114.69;;;-1.06;100.00
75290;BME280;63883;48.996;20.804;2023-11-19T21:44:12;96108.75;;;-1.17;100.00
75290;BME280;63883;48.996;20.804;2023-11-19T21:46:37;96112.94;;;-1.15;100.00
75290;BME280;63883;48.996;20.804;2023-11-19T21:49:03;96130.50;;;-1.12;100.00
75290;BME280;63883;48.996;20.804;2023-11-19T21:51:29;96128.03;;;-1.07;100.00
75290;BME280;63883;48.996;20.804;2023-11-19T21:53:54;96115.50;;;-1.07;100.00
75290;BME280;63883;48.996;20.804;2023-11-19T21:56:20;96107.25;;;-1.02;100.00
75290;BME280;63883;48.996;20.804;2023-11-19T21:58:45;96103.06;;;-1.03;100.00
75290;BME280;63883;48.996;20.804;2023-11-19T22:01:11;96103.78;;;-1.13;100.00
75290;BME280;63883;48.996;20.804;2023-11-19T22:03:37;96087.03;;;-1.20;100.00
75290;BME280;63883;48.996;20.804;2023-11-19T22:06:03;96097.00;;;-1.26;100.00
75290;BME280;63883;48.996;20.804;2023-11-19T22:08:29;96093.56;;;-1.34;100.00
75290;BME280;63883;48.996;20.804;2023-11-19T22:10:57;96101.81;;;-1.41;100.00
75290;BME280;63883;48.996;20.804;2023-11-19T22:13:23;96089.38;;;-1.35;100.00
75290;BME280;63883;48.996;20.804;2023-11-19T22:15:49;96091.06;;;-1.34;100.00
75290;BME280;63883;48.996;20.804;2023-11-19T22:18:14;96092.50;;;-1.56;100.00
75290;BME280;63883;48.996;20.804;2023-11-19T22:20:40;96104.09;;;-1.61;100.00
75290;BME280;63883;48.996;20.804;2023-11-19T22:23:05;96094.06;;;-1.64;100.00
75290;BME280;63883;48.996;20.804;2023-11-19T22:25:31;96104.00;;;-1.69;100.00
75290;BME280;63883;48.996;20.804;2023-11-19T22:27:57;96104.72;;;-1.79;100.00
75290;BME280;63883;48.996;20.804;2023-11-19T22:30:23;96095.56;;;-1.77;100.00
75290;BME280;63883;48.996;20.804;2023-11-19T22:32:48;96097.97;;;-1.86;100.00
75290;BME280;63883;48.996;20.804;2023-11-19T22:35:14;96086.28;;;-1.87;100.00
75290;BME280;63883;48.996;20.804;2023-11-19T22:37:40;96101.25;;;-1.90;100.00
75290;BME280;63883;48.996;20.804;2023-11-19T22:40:07;96097.81;;;-1.98;100.00
75290;BME280;63883;48.996;20.804;2023-11-19T22:42:33;96106.19;;;-1.94;100.00
75290;BME280;63883;48.996;20.804;2023-11-19T22:45:01;96106.25;;;-1.90;100.00
75290;BME280;63883;48.996;20.804;2023-11-19T22:47:27;96097.09;;;-1.89;100.00
75290;BME280;63883;48.996;20.804;2023-11-19T22:49:57;96092.13;;;-1.86;100.00
75290;BME280;63883;48.996;20.804;2023-11-19T22:52:23;96099.50;;;-1.97;100.00
75290;BME280;63883;48.996;20.804;2023-11-19T22:54:49;96091.16;;;-1.98;100.00
75290;BME280;63883;48.996;20.804;2023-11-19T22:57:14;96098.66;;;-1.98;100.00
75290;BME280;63883;48.996;20.804;2023-11-19T22:59:40;96113.72;;;-1.91;100.00
75290;BME280;63883;48.996;20.804;2023-11-19T23:02:06;96095.38;;;-1.95;100.00
75290;BME280;63883;48.996;20.804;2023-11-19T23:04:32;96101.16;;;-1.98;100.00
75290;BME280;63883;48.996;20.804;2023-11-19T23:06:57;96107.00;;;-1.94;100.00
75290;BME280;63883;48.996;20.804;2023-11-19T23:09:23;96078.75;;;-1.91;100.00
75290;BME280;63883;48.996;20.804;2023-11-19T23:11:48;96076.25;;;-1.90;100.00
75290;BME280;63883;48.996;20.804;2023-11-19T23:14:14;96084.56;;;-1.91;100.00
75290;BME280;63883;48.996;20.804;2023-11-19T23:16:40;96072.88;;;-1.95;100.00
75290;BME280;63883;48.996;20.804;2023-11-19T23:19:06;96076.25;;;-1.91;100.00
75290;BME280;63883;48.996;20.804;2023-11-19T23:21:34;96087.84;;;-1.97;100.00
75290;BME280;63883;48.996;20.804;2023-11-19T23:24:08;96078.66;;;-1.98;100.00
75290;BME280;63883;48.996;20.804;2023-11-19T23:26:34;96075.19;;;-2.07;100.00
75290;BME280;63883;48.996;20.804;2023-11-19T23:29:00;96068.50;;;-2.11;100.00
75290;BME280;63883;48.996;20.804;2023-11-19T23:31:25;96065.13;;;-2.13;100.00
75290;BME280;63883;48.996;20.804;2023-11-19T23:33:51;96075.16;;;-2.09;100.00
75290;BME280;63883;48.996;20.804;2023-11-19T23:36:16;96084.41;;;-2.02;100.00
75290;BME280;63883;48.996;20.804;2023-11-19T23:38:42;96085.31;;;-1.98;100.00
75290;BME280;63883;48.996;20.804;2023-11-19T23:41:08;96111.13;;;-1.99;100.00
75290;BME280;63883;48.996;20.804;2023-11-19T23:43:33;96109.50;;;-1.94;100.00
75290;BME280;63883;48.996;20.804;2023-11-19T23:45:59;96111.94;;;-2.00;100.00
75290;BME280;63883;48.996;20.804;2023-11-19T23:48:25;96113.47;;;-2.08;100.00
75290;BME280;63883;48.996;20.804;2023-11-19T23:50:51;96126.88;;;-2.05;100.00
75290;BME280;63883;48.996;20.804;2023-11-19T23:53:19;96122.75;;;-2.00;100.00
75290;BME280;63883;48.996;20.804;2023-11-19T23:55:45;96124.56;;;-1.91;100.00
75290;BME280;63883;48.996;20.804;2023-11-19T23:58:11;96127.19;;;-1.82;100.00
